sensor_id;sensor_type;location;lat;lon;timestamp;temperature;humidity
58582;DHT22;44361;51.476;5.700;2023-05-15T00:01:17;12.30;99.90
58582;DHT22;44361;51.476;5.700;2023-05-15T00:03:43;12.20;99.90
58582;DHT22;44361;51.476;5.700;2023-05-15T00:06:08;12.20;99.90
58582;DHT22;44361;51.476;5.700;2023-05-15T00:08:34;12.20;99.90
58582;DHT22;44361;51.476;5.700;2023-05-15T00:10:59;12.20;99.90
58582;DHT22;44361;51.476;5.700;2023-05-15T00:13:25;12.20;99.90
58582;DHT22;44361;51.476;5.700;2023-05-15T00:15:51;12.10;99.90
58582;DHT22;44361;51.476;5.700;2023-05-15T00:18:16;12.10;99.90
58582;DHT22;44361;51.476;5.700;2023-05-15T00:20:42;12.10;99.90
58582;DHT22;44361;51.476;5.700;2023-05-15T00:23:08;12.10;99.90
58582;DHT22;44361;51.476;5.700;2023-05-15T00:25:34;12.10;99.90
58582;DHT22;44361;51.476;5.700;2023-05-15T00:27:59;12.00;99.90
58582;DHT22;44361;51.476;5.700;2023-05-15T00:30:25;11.90;99.90
58582;DHT22;44361;51.476;5.700;2023-05-15T00:32:50;11.90;99.90
58582;DHT22;44361;51.476;5.700;2023-05-15T00:35:16;11.90;99.90
58582;DHT22;44361;51.476;5.700;2023-05-15T00:37:42;11.90;99.90
58582;DHT22;44361;51.476;5.700;2023-05-15T00:40:09;11.80;99.90
58582;DHT22;44361;51.476;5.700;2023-05-15T00:42:35;11.80;99.90
58582;DHT22;44361;51.476;5.700;2023-05-15T00:45:01;11.70;99.90
58582;DHT22;44361;51.476;5.700;2023-05-15T00:47:28;11.70;99.90
58582;DHT22;44361;51.476;5.700;2023-05-15T00:49:54;11.70;99.90
58582;DHT22;44361;51.476;5.700;2023-05-15T00:52:22;11.60;99.90
58582;DHT22;44361;51.476;5.700;2023-05-15T00:54:48;11.60;99.90
58582;DHT22;44361;51.476;5.700;2023-05-15T00:57:15;11.50;99.90
58582;DHT22;44361;51.476;5.700;2023-05-15T00:59:42;11.50;99.90
58582;DHT22;44361;51.476;5.700;2023-05-15T01:02:09;11.40;99.90
58582;DHT22;44361;51.476;5.700;2023-05-15T01:04:34;11.40;99.90
58582;DHT22;44361;51.476;5.700;2023-05-15T01:07:00;11.40;99.90
58582;DHT22;44361;51.476;5.700;2023-05-15T01:09:27;11.30;99.90
58582;DHT22;44361;51.476;5.700;2023-05-15T01:11:56;11.30;99.90
58582;DHT22;44361;51.476;5.700;2023-05-15T01:14:23;11.30;99.90
58582;DHT22;44361;51.476;5.700;2023-05-15T01:16:49;11.20;99.90
58582;DHT22;44361;51.476;5.700;2023-05-15T01:19:14;11.20;99.90
58582;DHT22;44361;51.476;5.700;2023-05-15T01:33:02;11.10;99.90
58582;DHT22;44361;51.476;5.700;2023-05-15T01:35:44;11.10;99.90
58582;DHT22;44361;51.476;5.700;2023-05-15T01:38:32;11.10;99.90
58582;DHT22;44361;51.476;5.700;2023-05-15T01:41:05;11.10;99.90
58582;DHT22;44361;51.476;5.700;2023-05-15T01:43:34;11.00;99.90
58582;DHT22;44361;51.476;5.700;2023-05-15T01:46:01;11.00;99.90
58582;DHT22;44361;51.476;5.700;2023-05-15T01:48:27;11.00;99.90
58582;DHT22;44361;51.476;5.700;2023-05-15T01:50:57;11.00;99.90
58582;DHT22;44361;51.476;5.700;2023-05-15T01:53:26;11.00;99.90
58582;DHT22;44361;51.476;5.700;2023-05-15T01:55:52;10.90;99.90
58582;DHT22;44361;51.476;5.700;2023-05-15T01:58:19;10.90;99.90
58582;DHT22;44361;51.476;5.700;2023-05-15T02:00:45;10.90;99.90
58582;DHT22;44361;51.476;5.700;2023-05-15T02:03:12;10.90;99.90
58582;DHT22;44361;51.476;5.700;2023-05-15T02:05:38;10.80;99.90
58582;DHT22;44361;51.476;5.700;2023-05-15T02:08:04;10.80;99.90
58582;DHT22;44361;51.476;5.700;2023-05-15T02:10:31;10.80;99.90
58582;DHT22;44361;51.476;5.700;2023-05-15T02:12:58;10.80;99.90
58582;DHT22;44361;51.476;5.700;2023-05-15T02:15:24;10.70;99.90
58582;DHT22;44361;51.476;5.700;2023-05-15T02:17:50;10.70;99.90
58582;DHT22;44361;51.476;5.700;2023-05-15T02:20:16;10.60;99.90
58582;DHT22;44361;51.476;5.700;2023-05-15T02:22:42;10.60;99.90
58582;DHT22;44361;51.476;5.700;2023-05-15T02:25:07;10.50;99.90
58582;DHT22;44361;51.476;5.700;2023-05-15T02:27:50;10.50;99.90
58582;DHT22;44361;51.476;5.700;2023-05-15T02:30:42;10.40;99.90
58582;DHT22;44361;51.476;5.700;2023-05-15T02:33:36;10.40;99.90
58582;DHT22;44361;51.476;5.700;2023-05-15T02:36:07;10.40;99.90
58582;DHT22;44361;51.476;5.700;2023-05-15T02:38:52;10.30;99.90
58582;DHT22;44361;51.476;5.700;2023-05-15T02:41:18;10.30;99.90
58582;DHT22;44361;51.476;5.700;2023-05-15T02:43:44;10.30;99.90
58582;DHT22;44361;51.476;5.700;2023-05-15T02:46:12;10.20;99.90
58582;DHT22;44361;51.476;5.700;2023-05-15T02:48:40;10.20;99.90
58582;DHT22;44361;51.476;5.700;2023-05-15T02:51:06;10.20;99.90
58582;DHT22;44361;51.476;5.700;2023-05-15T02:53:32;10.20;99.90
58582;DHT22;44361;51.476;5.700;2023-05-15T02:55:58;10.20;99.90
58582;DHT22;44361;51.476;5.700;2023-05-15T02:58:25;10.10;99.90
58582;DHT22;44361;51.476;5.700;2023-05-15T03:00:50;10.10;99.90
58582;DHT22;44361;51.476;5.700;2023-05-15T03:03:16;10.10;99.90
58582;DHT22;44361;51.476;5.700;2023-05-15T03:05:41;10.00;99.90
58582;DHT22;44361;51.476;5.700;2023-05-15T03:08:07;10.00;99.90
58582;DHT22;44361;51.476;5.700;2023-05-15T03:10:32;10.10;99.90
58582;DHT22;44361;51.476;5.700;2023-05-15T03:12:58;10.10;99.90
58582;DHT22;44361;51.476;5.700;2023-05-15T03:15:24;10.10;99.90
58582;DHT22;44361;51.476;5.700;2023-05-15T03:17:49;10.00;99.90
58582;DHT22;44361;51.476;5.700;2023-05-15T03:20:15;10.10;99.90
58582;DHT22;44361;51.476;5.700;2023-05-15T03:22:41;10.10;99.90
58582;DHT22;44361;51.476;5.700;2023-05-15T03:25:09;10.10;99.90
58582;DHT22;44361;51.476;5.700;2023-05-15T03:27:35;10.00;99.90
58582;DHT22;44361;51.476;5.700;2023-05-15T03:30:01;10.00;99.90
58582;DHT22;44361;51.476;5.700;2023-05-15T03:32:26;9.90;99.90
58582;DHT22;44361;51.476;5.700;2023-05-15T03:34:52;9.90;99.90
58582;DHT22;44361;51.476;5.700;2023-05-15T03:37:17;10.00;99.90
58582;DHT22;44361;51.476;5.700;2023-05-15T03:39:43;9.90;99.90
58582;DHT22;44361;51.476;5.700;2023-05-15T03:42:08;9.90;99.90
58582;DHT22;44361;51.476;5.700;2023-05-15T03:44:34;9.90;99.90
58582;DHT22;44361;51.476;5.700;2023-05-15T03:46:59;9.90;99.90
58582;DHT22;44361;51.476;5.700;2023-05-15T03:49:25;9.90;99.90
58582;DHT22;44361;51.476;5.700;2023-05-15T03:51:50;9.90;99.90
58582;DHT22;44361;51.476;5.700;2023-05-15T03:54:16;9.90;99.90
58582;DHT22;44361;51.476;5.700;2023-05-15T03:56:41;9.80;99.90
58582;DHT22;44361;51.476;5.700;2023-05-15T03:59:07;9.90;99.90
58582;DHT22;44361;51.476;5.700;2023-05-15T04:01:32;9.80;99.90
58582;DHT22;44361;51.476;5.700;2023-05-15T04:03:58;9.80;99.90
58582;DHT22;44361;51.476;5.700;2023-05-15T04:06:23;9.80;99.90
58582;DHT22;44361;51.476;5.700;2023-05-15T04:08:49;9.80;99.90
58582;DHT22;44361;51.476;5.700;2023-05-15T04:11:15;9.80;99.90
58582;DHT22;44361;51.476;5.700;2023-05-15T04:13:40;9.80;99.90
58582;DHT22;44361;51.476;5.700;2023-05-15T04:16:06;9.80;99.90
58582;DHT22;44361;51.476;5.700;2023-05-15T04:18:32;9.80;99.90
58582;DHT22;44361;51.476;5.700;2023-05-15T04:20:58;9.90;99.90
58582;DHT22;44361;51.476;5.700;2023-05-15T04:23:24;9.90;99.90
58582;DHT22;44361;51.476;5.700;2023-05-15T04:25:49;9.80;99.90
58582;DHT22;44361;51.476;5.700;2023-05-15T04:28:18;9.90;99.90
58582;DHT22;44361;51.476;5.700;2023-05-15T04:30:45;10.00;99.90
58582;DHT22;44361;51.476;5.700;2023-05-15T04:33:10;10.00;99.90
58582;DHT22;44361;51.476;5.700;2023-05-15T04:35:36;10.00;99.90
58582;DHT22;44361;51.476;5.700;2023-05-15T04:38:02;10.00;99.90
58582;DHT22;44361;51.476;5.700;2023-05-15T04:40:27;10.00;99.90
58582;DHT22;44361;51.476;5.700;2023-05-15T04:42:53;10.00;99.90
58582;DHT22;44361;51.476;5.700;2023-05-15T04:45:19;10.00;99.90
58582;DHT22;44361;51.476;5.700;2023-05-15T04:47:44;10.00;99.90
58582;DHT22;44361;51.476;5.700;2023-05-15T04:50:10;10.10;99.90
58582;DHT22;44361;51.476;5.700;2023-05-15T04:52:35;10.10;99.90
58582;DHT22;44361;51.476;5.700;2023-05-15T04:55:01;10.10;99.90
58582;DHT22;44361;51.476;5.700;2023-05-15T04:57:27;10.20;99.90
58582;DHT22;44361;51.476;5.700;2023-05-15T04:59:52;10.20;99.90
58582;DHT22;44361;51.476;5.700;2023-05-15T05:02:21;10.30;99.90
58582;DHT22;44361;51.476;5.700;2023-05-15T05:04:47;10.50;99.90
58582;DHT22;44361;51.476;5.700;2023-05-15T05:07:12;10.50;99.90
58582;DHT22;44361;51.476;5.700;2023-05-15T05:09:38;10.50;99.90
58582;DHT22;44361;51.476;5.700;2023-05-15T05:12:05;10.60;99.90
58582;DHT22;44361;51.476;5.700;2023-05-15T05:14:31;10.60;99.90
58582;DHT22;44361;51.476;5.700;2023-05-15T05:16:56;10.60;99.90
58582;DHT22;44361;51.476;5.700;2023-05-15T05:19:22;10.60;99.90
58582;DHT22;44361;51.476;5.700;2023-05-15T05:21:47;10.60;99.90
58582;DHT22;44361;51.476;5.700;2023-05-15T05:24:13;10.60;99.90
58582;DHT22;44361;51.476;5.700;2023-05-15T05:26:38;10.70;99.90
58582;DHT22;44361;51.476;5.700;2023-05-15T05:29:04;10.70;99.90
58582;DHT22;44361;51.476;5.700;2023-05-15T05:31:29;10.80;99.90
58582;DHT22;44361;51.476;5.700;2023-05-15T05:33:55;10.80;99.90
58582;DHT22;44361;51.476;5.700;2023-05-15T05:36:20;11.10;99.90
58582;DHT22;44361;51.476;5.700;2023-05-15T05:38:46;11.30;99.90
58582;DHT22;44361;51.476;5.700;2023-05-15T05:41:11;11.90;99.90
58582;DHT22;44361;51.476;5.700;2023-05-15T05:43:37;12.40;99.90
58582;DHT22;44361;51.476;5.700;2023-05-15T05:46:02;12.50;99.90
58582;DHT22;44361;51.476;5.700;2023-05-15T05:48:28;12.20;99.90
58582;DHT22;44361;51.476;5.700;2023-05-15T05:50:55;12.10;99.90
58582;DHT22;44361;51.476;5.700;2023-05-15T05:53:20;12.30;99.90
58582;DHT22;44361;51.476;5.700;2023-05-15T05:55:47;12.30;99.90
58582;DHT22;44361;51.476;5.700;2023-05-15T05:58:12;12.30;99.90
58582;DHT22;44361;51.476;5.700;2023-05-15T06:00:38;12.40;99.90
58582;DHT22;44361;51.476;5.700;2023-05-15T06:03:04;12.30;99.90
58582;DHT22;44361;51.476;5.700;2023-05-15T06:05:29;12.40;99.90
58582;DHT22;44361;51.476;5.700;2023-05-15T06:07:55;12.50;99.90
58582;DHT22;44361;51.476;5.700;2023-05-15T06:10:21;12.90;99.90
58582;DHT22;44361;51.476;5.700;2023-05-15T06:12:47;13.00;99.90
58582;DHT22;44361;51.476;5.700;2023-05-15T06:15:13;13.40;99.90
58582;DHT22;44361;51.476;5.700;2023-05-15T06:17:38;13.80;99.90
58582;DHT22;44361;51.476;5.700;2023-05-15T06:20:05;13.70;99.90
58582;DHT22;44361;51.476;5.700;2023-05-15T06:22:35;13.70;99.90
58582;DHT22;44361;51.476;5.700;2023-05-15T06:25:01;13.60;99.90
58582;DHT22;44361;51.476;5.700;2023-05-15T06:27:28;13.60;99.90
58582;DHT22;44361;51.476;5.700;2023-05-15T06:29:54;13.30;99.90
58582;DHT22;44361;51.476;5.700;2023-05-15T06:32:20;13.10;99.90
58582;DHT22;44361;51.476;5.700;2023-05-15T06:34:45;13.10;99.90
58582;DHT22;44361;51.476;5.700;2023-05-15T06:37:11;13.40;99.90
58582;DHT22;44361;51.476;5.700;2023-05-15T06:39:36;13.90;99.90
58582;DHT22;44361;51.476;5.700;2023-05-15T06:42:02;13.90;99.90
58582;DHT22;44361;51.476;5.700;2023-05-15T06:44:29;14.40;99.90
58582;DHT22;44361;51.476;5.700;2023-05-15T06:46:55;14.60;99.90
58582;DHT22;44361;51.476;5.700;2023-05-15T06:49:21;14.90;99.90
58582;DHT22;44361;51.476;5.700;2023-05-15T06:51:47;15.10;99.90
58582;DHT22;44361;51.476;5.700;2023-05-15T06:54:13;15.40;99.90
58582;DHT22;44361;51.476;5.700;2023-05-15T06:56:38;15.20;99.90
58582;DHT22;44361;51.476;5.700;2023-05-15T06:59:04;14.90;99.90
58582;DHT22;44361;51.476;5.700;2023-05-15T07:01:30;14.80;99.90
58582;DHT22;44361;51.476;5.700;2023-05-15T07:03:56;14.70;99.90
58582;DHT22;44361;51.476;5.700;2023-05-15T07:06:21;14.70;99.90
58582;DHT22;44361;51.476;5.700;2023-05-15T07:08:47;14.60;99.90
58582;DHT22;44361;51.476;5.700;2023-05-15T07:11:13;14.70;99.90
58582;DHT22;44361;51.476;5.700;2023-05-15T07:13:39;14.60;99.90
58582;DHT22;44361;51.476;5.700;2023-05-15T07:16:05;14.50;99.90
58582;DHT22;44361;51.476;5.700;2023-05-15T07:18:30;14.50;99.90
58582;DHT22;44361;51.476;5.700;2023-05-15T07:20:56;14.50;99.90
58582;DHT22;44361;51.476;5.700;2023-05-15T07:23:22;14.60;99.90
58582;DHT22;44361;51.476;5.700;2023-05-15T07:25:47;14.50;99.90
58582;DHT22;44361;51.476;5.700;2023-05-15T07:28:13;14.40;99.90
58582;DHT22;44361;51.476;5.700;2023-05-15T07:30:39;14.20;99.90
58582;DHT22;44361;51.476;5.700;2023-05-15T07:33:04;14.10;99.90
58582;DHT22;44361;51.476;5.700;2023-05-15T07:35:30;14.30;99.90
58582;DHT22;44361;51.476;5.700;2023-05-15T07:37:56;14.70;99.90
58582;DHT22;44361;51.476;5.700;2023-05-15T07:40:21;14.80;99.90
58582;DHT22;44361;51.476;5.700;2023-05-15T07:42:47;14.70;99.90
58582;DHT22;44361;51.476;5.700;2023-05-15T07:45:12;15.00;99.90
58582;DHT22;44361;51.476;5.700;2023-05-15T07:47:40;15.30;99.90
58582;DHT22;44361;51.476;5.700;2023-05-15T07:50:06;15.50;99.90
58582;DHT22;44361;51.476;5.700;2023-05-15T07:52:31;15.50;99.90
58582;DHT22;44361;51.476;5.700;2023-05-15T07:54:57;15.60;99.90
58582;DHT22;44361;51.476;5.700;2023-05-15T07:57:23;15.60;99.90
58582;DHT22;44361;51.476;5.700;2023-05-15T07:59:49;15.70;99.60
58582;DHT22;44361;51.476;5.700;2023-05-15T08:02:15;15.90;99.90
58582;DHT22;44361;51.476;5.700;2023-05-15T08:04:40;16.10;99.90
58582;DHT22;44361;51.476;5.700;2023-05-15T08:07:06;16.10;99.90
58582;DHT22;44361;51.476;5.700;2023-05-15T08:09:32;16.10;99.90
58582;DHT22;44361;51.476;5.700;2023-05-15T08:12:17;16.50;99.90
58582;DHT22;44361;51.476;5.700;2023-05-15T08:14:48;16.40;99.40
58582;DHT22;44361;51.476;5.700;2023-05-15T08:17:14;16.40;96.90
58582;DHT22;44361;51.476;5.700;2023-05-15T08:19:40;16.50;97.40
58582;DHT22;44361;51.476;5.700;2023-05-15T08:22:06;16.50;98.30
58582;DHT22;44361;51.476;5.700;2023-05-15T08:24:31;16.30;98.60
58582;DHT22;44361;51.476;5.700;2023-05-15T08:26:57;16.20;99.00
58582;DHT22;44361;51.476;5.700;2023-05-15T08:29:22;16.10;96.60
58582;DHT22;44361;51.476;5.700;2023-05-15T08:31:48;16.30;99.10
58582;DHT22;44361;51.476;5.700;2023-05-15T08:34:13;16.70;99.20
58582;DHT22;44361;51.476;5.700;2023-05-15T08:36:39;16.80;99.30
58582;DHT22;44361;51.476;5.700;2023-05-15T08:39:04;17.00;98.80
58582;DHT22;44361;51.476;5.700;2023-05-15T08:41:41;17.10;98.40
58582;DHT22;44361;51.476;5.700;2023-05-15T08:44:10;17.30;98.40
58582;DHT22;44361;51.476;5.700;2023-05-15T08:46:37;17.70;96.20
58582;DHT22;44361;51.476;5.700;2023-05-15T08:49:10;17.70;95.60
58582;DHT22;44361;51.476;5.700;2023-05-15T08:51:38;17.50;94.80
58582;DHT22;44361;51.476;5.700;2023-05-15T08:54:04;17.20;94.30
58582;DHT22;44361;51.476;5.700;2023-05-15T08:56:30;17.50;95.90
58582;DHT22;44361;51.476;5.700;2023-05-15T08:58:56;17.90;94.70
58582;DHT22;44361;51.476;5.700;2023-05-15T09:01:22;18.00;95.00
58582;DHT22;44361;51.476;5.700;2023-05-15T09:03:48;18.10;92.70
58582;DHT22;44361;51.476;5.700;2023-05-15T09:06:13;18.20;93.70
58582;DHT22;44361;51.476;5.700;2023-05-15T09:08:40;18.50;93.10
58582;DHT22;44361;51.476;5.700;2023-05-15T09:11:06;18.70;92.50
58582;DHT22;44361;51.476;5.700;2023-05-15T09:13:32;18.70;92.70
58582;DHT22;44361;51.476;5.700;2023-05-15T09:15:58;19.10;93.20
58582;DHT22;44361;51.476;5.700;2023-05-15T09:18:24;19.20;94.30
58582;DHT22;44361;51.476;5.700;2023-05-15T09:20:50;19.40;94.30
58582;DHT22;44361;51.476;5.700;2023-05-15T09:23:26;19.70;91.80
58582;DHT22;44361;51.476;5.700;2023-05-15T09:25:52;19.70;91.60
58582;DHT22;44361;51.476;5.700;2023-05-15T09:28:30;19.60;90.40
58582;DHT22;44361;51.476;5.700;2023-05-15T09:31:01;19.60;88.30
58582;DHT22;44361;51.476;5.700;2023-05-15T09:33:31;19.40;92.60
58582;DHT22;44361;51.476;5.700;2023-05-15T09:35:58;19.70;91.60
58582;DHT22;44361;51.476;5.700;2023-05-15T09:38:24;19.70;92.40
58582;DHT22;44361;51.476;5.700;2023-05-15T09:40:50;19.60;90.50
58582;DHT22;44361;51.476;5.700;2023-05-15T09:43:27;19.90;90.30
58582;DHT22;44361;51.476;5.700;2023-05-15T09:45:53;20.30;88.60
58582;DHT22;44361;51.476;5.700;2023-05-15T09:48:20;20.10;88.00
58582;DHT22;44361;51.476;5.700;2023-05-15T09:50:46;19.70;88.90
58582;DHT22;44361;51.476;5.700;2023-05-15T09:53:12;19.00;89.70
58582;DHT22;44361;51.476;5.700;2023-05-15T09:55:40;19.00;90.00
58582;DHT22;44361;51.476;5.700;2023-05-15T10:00:37;18.80;91.70
58582;DHT22;44361;51.476;5.700;2023-05-15T10:03:04;19.00;91.00
58582;DHT22;44361;51.476;5.700;2023-05-15T10:05:30;18.80;88.00
58582;DHT22;44361;51.476;5.700;2023-05-15T10:07:57;18.60;88.70
58582;DHT22;44361;51.476;5.700;2023-05-15T10:10:24;18.80;88.40
58582;DHT22;44361;51.476;5.700;2023-05-15T10:12:51;19.00;89.40
58582;DHT22;44361;51.476;5.700;2023-05-15T10:15:18;19.50;88.00
58582;DHT22;44361;51.476;5.700;2023-05-15T10:17:46;19.80;90.10
58582;DHT22;44361;51.476;5.700;2023-05-15T10:20:12;20.10;86.50
58582;DHT22;44361;51.476;5.700;2023-05-15T10:22:40;20.10;89.30
58582;DHT22;44361;51.476;5.700;2023-05-15T10:28:15;20.90;87.10
58582;DHT22;44361;51.476;5.700;2023-05-15T10:30:41;20.40;88.00
58582;DHT22;44361;51.476;5.700;2023-05-15T10:33:07;20.40;85.80
58582;DHT22;44361;51.476;5.700;2023-05-15T10:35:34;20.60;89.70
58582;DHT22;44361;51.476;5.700;2023-05-15T10:38:04;20.40;87.80
58582;DHT22;44361;51.476;5.700;2023-05-15T10:40:29;20.10;90.50
58582;DHT22;44361;51.476;5.700;2023-05-15T10:42:58;19.60;89.60
58582;DHT22;44361;51.476;5.700;2023-05-15T10:45:25;19.50;89.90
58582;DHT22;44361;51.476;5.700;2023-05-15T10:47:51;19.20;90.80
58582;DHT22;44361;51.476;5.700;2023-05-15T10:50:17;19.10;90.30
58582;DHT22;44361;51.476;5.700;2023-05-15T10:52:43;19.00;90.00
58582;DHT22;44361;51.476;5.700;2023-05-15T10:55:13;18.90;90.10
58582;DHT22;44361;51.476;5.700;2023-05-15T10:57:40;18.80;91.10
58582;DHT22;44361;51.476;5.700;2023-05-15T11:02:48;18.40;93.00
58582;DHT22;44361;51.476;5.700;2023-05-15T11:05:14;18.20;92.20
58582;DHT22;44361;51.476;5.700;2023-05-15T11:07:39;18.40;91.40
58582;DHT22;44361;51.476;5.700;2023-05-15T11:12:57;17.80;90.60
58582;DHT22;44361;51.476;5.700;2023-05-15T11:15:23;17.70;92.30
58582;DHT22;44361;51.476;5.700;2023-05-15T11:18:05;17.60;93.10
58582;DHT22;44361;51.476;5.700;2023-05-15T11:23:22;17.30;94.60
58582;DHT22;44361;51.476;5.700;2023-05-15T11:25:57;17.40;93.80
58582;DHT22;44361;51.476;5.700;2023-05-15T11:28:23;17.40;94.30
58582;DHT22;44361;51.476;5.700;2023-05-15T11:30:51;17.40;95.20
58582;DHT22;44361;51.476;5.700;2023-05-15T11:33:19;17.80;95.00
58582;DHT22;44361;51.476;5.700;2023-05-15T11:35:47;18.40;94.50
58582;DHT22;44361;51.476;5.700;2023-05-15T11:38:15;18.20;93.20
58582;DHT22;44361;51.476;5.700;2023-05-15T11:43:17;17.50;94.30
58582;DHT22;44361;51.476;5.700;2023-05-15T11:45:46;17.60;94.10
58582;DHT22;44361;51.476;5.700;2023-05-15T11:48:14;17.70;93.00
58582;DHT22;44361;51.476;5.700;2023-05-15T11:50:41;17.60;92.70
58582;DHT22;44361;51.476;5.700;2023-05-15T11:53:08;17.60;93.20
58582;DHT22;44361;51.476;5.700;2023-05-15T11:55:36;17.80;93.40
58582;DHT22;44361;51.476;5.700;2023-05-15T11:58:03;17.90;93.30
58582;DHT22;44361;51.476;5.700;2023-05-15T12:00:29;18.10;93.60
58582;DHT22;44361;51.476;5.700;2023-05-15T12:02:55;18.30;95.00
58582;DHT22;44361;51.476;5.700;2023-05-15T12:05:21;18.00;94.30
58582;DHT22;44361;51.476;5.700;2023-05-15T12:07:47;18.10;94.30
58582;DHT22;44361;51.476;5.700;2023-05-15T12:10:13;18.20;95.10
58582;DHT22;44361;51.476;5.700;2023-05-15T12:12:40;18.00;95.90
58582;DHT22;44361;51.476;5.700;2023-05-15T12:15:08;18.10;95.10
58582;DHT22;44361;51.476;5.700;2023-05-15T12:17:38;18.10;94.80
58582;DHT22;44361;51.476;5.700;2023-05-15T12:20:07;18.10;95.30
58582;DHT22;44361;51.476;5.700;2023-05-15T12:22:40;18.10;94.20
58582;DHT22;44361;51.476;5.700;2023-05-15T12:25:07;17.90;94.70
58582;DHT22;44361;51.476;5.700;2023-05-15T12:27:36;17.60;95.90
58582;DHT22;44361;51.476;5.700;2023-05-15T12:30:02;17.60;96.90
58582;DHT22;44361;51.476;5.700;2023-05-15T12:32:34;17.60;96.70
58582;DHT22;44361;51.476;5.700;2023-05-15T12:35:01;17.70;97.50
58582;DHT22;44361;51.476;5.700;2023-05-15T12:37:31;17.70;97.20
58582;DHT22;44361;51.476;5.700;2023-05-15T12:40:04;17.70;96.90
58582;DHT22;44361;51.476;5.700;2023-05-15T12:42:40;17.30;97.40
58582;DHT22;44361;51.476;5.700;2023-05-15T12:45:12;17.10;97.80
58582;DHT22;44361;51.476;5.700;2023-05-15T12:47:38;17.00;98.00
58582;DHT22;44361;51.476;5.700;2023-05-15T12:50:18;17.00;99.00
58582;DHT22;44361;51.476;5.700;2023-05-15T12:52:55;17.30;98.10
58582;DHT22;44361;51.476;5.700;2023-05-15T12:55:32;17.50;98.50
58582;DHT22;44361;51.476;5.700;2023-05-15T12:58:08;17.40;97.70
58582;DHT22;44361;51.476;5.700;2023-05-15T13:00:36;17.20;98.20
58582;DHT22;44361;51.476;5.700;2023-05-15T13:03:03;17.10;98.80
58582;DHT22;44361;51.476;5.700;2023-05-15T13:05:31;17.10;99.00
58582;DHT22;44361;51.476;5.700;2023-05-15T13:07:58;17.30;99.10
58582;DHT22;44361;51.476;5.700;2023-05-15T13:10:24;17.60;98.40
58582;DHT22;44361;51.476;5.700;2023-05-15T13:12:51;17.70;98.50
58582;DHT22;44361;51.476;5.700;2023-05-15T13:15:36;17.70;98.30
58582;DHT22;44361;51.476;5.700;2023-05-15T13:18:12;17.40;98.40
58582;DHT22;44361;51.476;5.700;2023-05-15T13:20:46;17.50;98.70
58582;DHT22;44361;51.476;5.700;2023-05-15T13:23:17;17.60;98.40
58582;DHT22;44361;51.476;5.700;2023-05-15T13:25:44;17.50;98.70
58582;DHT22;44361;51.476;5.700;2023-05-15T13:28:10;17.50;98.90
58582;DHT22;44361;51.476;5.700;2023-05-15T13:30:36;17.90;98.60
58582;DHT22;44361;51.476;5.700;2023-05-15T13:33:06;18.10;98.40
58582;DHT22;44361;51.476;5.700;2023-05-15T13:35:31;18.80;98.60
58582;DHT22;44361;51.476;5.700;2023-05-15T13:37:57;19.00;97.70
58582;DHT22;44361;51.476;5.700;2023-05-15T13:40:22;19.00;97.60
58582;DHT22;44361;51.476;5.700;2023-05-15T13:42:48;18.90;97.20
58582;DHT22;44361;51.476;5.700;2023-05-15T13:45:15;18.80;97.10
58582;DHT22;44361;51.476;5.700;2023-05-15T13:47:42;18.60;97.00
58582;DHT22;44361;51.476;5.700;2023-05-15T13:50:14;18.50;97.70
58582;DHT22;44361;51.476;5.700;2023-05-15T13:52:41;18.40;97.70
58582;DHT22;44361;51.476;5.700;2023-05-15T13:55:08;18.80;97.60
58582;DHT22;44361;51.476;5.700;2023-05-15T13:57:35;18.90;97.10
58582;DHT22;44361;51.476;5.700;2023-05-15T14:00:02;19.20;98.80
58582;DHT22;44361;51.476;5.700;2023-05-15T14:02:30;19.00;96.80
58582;DHT22;44361;51.476;5.700;2023-05-15T14:04:55;18.40;98.00
58582;DHT22;44361;51.476;5.700;2023-05-15T14:07:22;18.40;98.00
58582;DHT22;44361;51.476;5.700;2023-05-15T14:09:48;18.80;98.50
58582;DHT22;44361;51.476;5.700;2023-05-15T14:12:13;18.80;97.50
58582;DHT22;44361;51.476;5.700;2023-05-15T14:14:39;18.50;97.40
58582;DHT22;44361;51.476;5.700;2023-05-15T14:17:05;18.40;97.10
58582;DHT22;44361;51.476;5.700;2023-05-15T14:19:30;18.20;98.00
58582;DHT22;44361;51.476;5.700;2023-05-15T14:21:56;17.80;98.00
58582;DHT22;44361;51.476;5.700;2023-05-15T14:24:21;17.60;98.50
58582;DHT22;44361;51.476;5.700;2023-05-15T14:26:47;17.90;98.40
58582;DHT22;44361;51.476;5.700;2023-05-15T14:29:13;18.00;98.10
58582;DHT22;44361;51.476;5.700;2023-05-15T14:31:39;18.00;97.90
58582;DHT22;44361;51.476;5.700;2023-05-15T14:34:05;17.40;98.90
58582;DHT22;44361;51.476;5.700;2023-05-15T14:36:31;17.10;99.50
58582;DHT22;44361;51.476;5.700;2023-05-15T14:38:56;16.90;99.90
58582;DHT22;44361;51.476;5.700;2023-05-15T14:41:22;16.40;99.80
58582;DHT22;44361;51.476;5.700;2023-05-15T14:43:47;16.10;99.90
58582;DHT22;44361;51.476;5.700;2023-05-15T14:46:13;15.80;99.90
58582;DHT22;44361;51.476;5.700;2023-05-15T14:48:38;15.50;99.90
58582;DHT22;44361;51.476;5.700;2023-05-15T14:51:04;15.30;99.90
58582;DHT22;44361;51.476;5.700;2023-05-15T14:53:30;15.10;99.90
58582;DHT22;44361;51.476;5.700;2023-05-15T14:55:56;15.00;99.90
58582;DHT22;44361;51.476;5.700;2023-05-15T14:58:23;15.00;99.90
58582;DHT22;44361;51.476;5.700;2023-05-15T15:00:48;15.00;99.90
58582;DHT22;44361;51.476;5.700;2023-05-15T15:03:14;15.50;99.90
58582;DHT22;44361;51.476;5.700;2023-05-15T15:05:40;16.10;99.90
58582;DHT22;44361;51.476;5.700;2023-05-15T15:08:07;16.40;99.90
58582;DHT22;44361;51.476;5.700;2023-05-15T15:10:35;16.70;99.90
58582;DHT22;44361;51.476;5.700;2023-05-15T15:13:01;16.90;99.90
58582;DHT22;44361;51.476;5.700;2023-05-15T15:15:27;17.20;99.90
58582;DHT22;44361;51.476;5.700;2023-05-15T15:17:54;17.30;99.90
58582;DHT22;44361;51.476;5.700;2023-05-15T15:20:20;17.30;99.90
58582;DHT22;44361;51.476;5.700;2023-05-15T15:22:46;17.00;99.90
58582;DHT22;44361;51.476;5.700;2023-05-15T15:25:12;16.60;99.90
58582;DHT22;44361;51.476;5.700;2023-05-15T15:27:38;16.60;99.90
58582;DHT22;44361;51.476;5.700;2023-05-15T15:30:05;16.50;99.90
58582;DHT22;44361;51.476;5.700;2023-05-15T15:32:31;16.60;99.90
58582;DHT22;44361;51.476;5.700;2023-05-15T15:34:57;16.70;99.90
58582;DHT22;44361;51.476;5.700;2023-05-15T15:37:23;16.90;99.90
58582;DHT22;44361;51.476;5.700;2023-05-15T15:39:49;17.10;99.90
58582;DHT22;44361;51.476;5.700;2023-05-15T15:42:14;17.00;99.90
58582;DHT22;44361;51.476;5.700;2023-05-15T15:44:41;17.00;99.90
58582;DHT22;44361;51.476;5.700;2023-05-15T15:47:06;17.20;99.90
58582;DHT22;44361;51.476;5.700;2023-05-15T15:49:32;16.90;99.90
58582;DHT22;44361;51.476;5.700;2023-05-15T15:51:57;16.70;99.90
58582;DHT22;44361;51.476;5.700;2023-05-15T15:54:23;17.00;99.90
58582;DHT22;44361;51.476;5.700;2023-05-15T15:56:50;17.30;99.90
58582;DHT22;44361;51.476;5.700;2023-05-15T15:59:15;17.00;99.90